Time;durP1;ratioP1;P1;durP2;ratioP2;P2;SDS_P1;SDS_P2;PMS_P1;PMS_P2;Temp;Humidity;BMP_temperature;BMP_pressure;BME280_temperature;BME280_humidity;BME280_pressure;Samples;Min_cycle;Max_cycle;Signal;HPM_P1;HPM_P2
2024/04/16 00:01:09;;;;;;;3.60;0.70;;;;;;;;;;5412659;26;20257;-66
2024/04/16 00:03:34;;;;;;;4.07;0.70;;;;;;;;;;5412579;26;20262;-66
2024/04/16 00:06:00;;;;;;;2.65;0.57;;;;;;;;;;5406184;26;20059;-66
2024/04/16 00:08:25;;;;;;;5.68;0.95;;;;;;;;;;5411379;26;20023;-67
2024/04/16 00:10:50;;;;;;;2.67;0.50;;;;;;;;;;5412347;26;20014;-67
2024/04/16 00:13:15;;;;;;;6.30;0.80;;;;;;;;;;5412195;26;20275;-66
2024/04/16 00:15:40;;;;;;;3.50;0.77;;;;;;;;;;5412765;26;20237;-67
2024/04/16 00:18:06;;;;;;;2.75;0.68;;;;;;;;;;5380343;26;20249;-66
2024/04/16 00:20:31;;;;;;;3.53;0.83;;;;;;;;;;5410308;26;20007;-66
2024/04/16 00:22:56;;;;;;;3.37;1.00;;;;;;;;;;5411804;26;20342;-66
2024/04/16 00:25:21;;;;;;;5.40;0.73;;;;;;;;;;5404954;26;20667;-67
2024/04/16 00:27:46;;;;;;;6.55;0.85;;;;;;;;;;5412927;26;20011;-66
2024/04/16 00:30:12;;;;;;;1.83;0.77;;;;;;;;;;5411785;26;20014;-66
2024/04/16 00:32:37;;;;;;;6.20;0.77;;;;;;;;;;5412510;26;20339;-67
2024/04/16 00:35:02;;;;;;;10.90;1.15;;;;;;;;;;5406714;26;19996;-67
2024/04/16 00:37:27;;;;;;;4.45;0.60;;;;;;;;;;5408124;26;19996;-66
2024/04/16 00:39:52;;;;;;;8.33;1.27;;;;;;;;;;5411879;26;19995;-66
2024/04/16 00:42:17;;;;;;;4.77;0.90;;;;;;;;;;5410477;26;20265;-67
2024/04/16 00:44:43;;;;;;;10.38;0.98;;;;;;;;;;5399909;26;20716;-66
2024/04/16 00:47:09;;;;;;;10.07;1.03;;;;;;;;;;5412518;26;20030;-66
2024/04/16 00:49:35;;;;;;;13.80;1.73;;;;;;;;;;5410164;26;20353;-66
2024/04/16 00:52:01;;;;;;;5.22;1.15;;;;;;;;;;5412159;26;20004;-66
2024/04/16 00:54:26;;;;;;;5.15;0.73;;;;;;;;;;5405042;26;20011;-66
2024/04/16 00:56:55;;;;;;;7.13;1.05;;;;;;;;;;5401845;26;20010;-66
2024/04/16 00:59:21;;;;;;;2.85;0.40;;;;;;;;;;5412375;26;19999;-66
2024/04/16 01:01:46;;;;;;;7.00;1.30;;;;;;;;;;5409560;26;20011;-66
2024/04/16 01:04:11;;;;;;;3.53;0.80;;;;;;;;;;5412780;26;20523;-66
2024/04/16 01:06:37;;;;;;;3.15;0.95;;;;;;;;;;5410979;26;20278;-67
2024/04/16 01:09:02;;;;;;;11.32;0.55;;;;;;;;;;5408787;26;20077;-66
2024/04/16 01:11:28;;;;;;;4.80;1.08;;;;;;;;;;5410864;26;20213;-67
2024/04/16 01:13:56;;;;;;;4.38;1.05;;;;;;;;;;5411592;26;19999;-66
2024/04/16 01:16:21;;;;;;;8.05;1.20;;;;;;;;;;5406213;26;20015;-66
2024/04/16 01:18:47;;;;;;;12.63;1.08;;;;;;;;;;5393949;26;20565;-65
2024/04/16 01:21:12;;;;;;;4.45;0.85;;;;;;;;;;5409929;26;20011;-66
2024/04/16 01:23:37;;;;;;;10.68;1.10;;;;;;;;;;5411003;26;20007;-66
2024/04/16 01:26:03;;;;;;;7.57;1.40;;;;;;;;;;5411756;26;19996;-66
2024/04/16 01:28:28;;;;;;;1.38;0.60;;;;;;;;;;5411416;26;19992;-66
2024/04/16 01:30:53;;;;;;;11.30;1.55;;;;;;;;;;5411484;26;20007;-66
2024/04/16 01:33:18;;;;;;;8.00;1.30;;;;;;;;;;5408081;26;19995;-66
2024/04/16 01:35:43;;;;;;;9.55;2.22;;;;;;;;;;5406017;26;20000;-66
2024/04/16 01:38:09;;;;;;;2.40;1.05;;;;;;;;;;5404686;26;20354;-67
2024/04/16 01:40:34;;;;;;;9.82;2.08;;;;;;;;;;5412267;26;20010;-66
2024/04/16 01:42:59;;;;;;;6.40;1.10;;;;;;;;;;5412337;26;20007;-66
2024/04/16 01:45:24;;;;;;;11.90;1.87;;;;;;;;;;5411954;26;20620;-66
2024/04/16 01:47:49;;;;;;;5.33;1.27;;;;;;;;;;5408703;26;20274;-66
2024/04/16 01:50:14;;;;;;;12.23;1.50;;;;;;;;;;5398000;26;20268;-66
2024/04/16 01:52:40;;;;;;;9.07;1.17;;;;;;;;;;5411608;26;20600;-66
2024/04/16 01:55:05;;;;;;;4.50;1.10;;;;;;;;;;5410680;26;19995;-68
2024/04/16 01:57:30;;;;;;;6.50;1.23;;;;;;;;;;5408473;26;20086;-68
2024/04/16 01:59:55;;;;;;;4.30;1.17;;;;;;;;;;5411624;26;20509;-68
2024/04/16 02:02:21;;;;;;;6.32;1.30;;;;;;;;;;5411818;26;20253;-68
2024/04/16 02:04:46;;;;;;;8.50;1.15;;;;;;;;;;5412463;26;20027;-68
2024/04/16 02:07:11;;;;;;;5.15;1.30;;;;;;;;;;5410672;26;19991;-68
2024/04/16 02:09:36;;;;;;;4.87;1.10;;;;;;;;;;5411915;26;20006;-68
2024/04/16 02:12:02;;;;;;;2.05;1.42;;;;;;;;;;5409045;26;20233;-67
2024/04/16 02:14:27;;;;;;;2.22;0.90;;;;;;;;;;5411860;26;20000;-68
2024/04/16 02:16:52;;;;;;;7.25;1.27;;;;;;;;;;5402423;26;20053;-68
2024/04/16 02:19:17;;;;;;;1.42;0.50;;;;;;;;;;5410238;26;20446;-68
2024/04/16 02:21:43;;;;;;;6.22;2.13;;;;;;;;;;5411598;26;20056;-69
2024/04/16 02:24:09;;;;;;;9.30;1.52;;;;;;;;;;5412433;26;20278;-69
2024/04/16 02:26:34;;;;;;;7.63;1.17;;;;;;;;;;5406093;26;20000;-69
2024/04/16 02:28:59;;;;;;;5.40;1.13;;;;;;;;;;5400181;26;20354;-68
2024/04/16 02:31:25;;;;;;;6.73;1.67;;;;;;;;;;5396725;26;20246;-68
2024/04/16 02:33:50;;;;;;;5.75;1.05;;;;;;;;;;5411009;26;20237;-68
2024/04/16 02:36:15;;;;;;;12.13;1.30;;;;;;;;;;5409741;26;20339;-68
2024/04/16 02:38:40;;;;;;;7.03;1.73;;;;;;;;;;5390088;26;20577;-68
2024/04/16 02:41:05;;;;;;;7.13;1.23;;;;;;;;;;5390050;26;20253;-68
2024/04/16 02:43:30;;;;;;;4.17;1.10;;;;;;;;;;5404584;26;20238;-69
2024/04/16 02:45:56;;;;;;;3.87;1.20;;;;;;;;;;5407598;26;20236;-69
2024/04/16 02:48:21;;;;;;;12.70;1.70;;;;;;;;;;5394946;26;20558;-69
2024/04/16 02:50:46;;;;;;;6.75;1.83;;;;;;;;;;5410876;26;19996;-68
2024/04/16 02:53:12;;;;;;;5.13;1.55;;;;;;;;;;5396460;26;20011;-68
2024/04/16 02:55:37;;;;;;;4.70;1.50;;;;;;;;;;5390057;26;20000;-68
2024/04/16 02:58:02;;;;;;;5.10;1.27;;;;;;;;;;5394373;26;20678;-68
2024/04/16 03:00:27;;;;;;;3.42;1.00;;;;;;;;;;5410269;26;20375;-69
2024/04/16 03:02:52;;;;;;;5.90;1.10;;;;;;;;;;5407716;26;19999;-68
2024/04/16 03:05:17;;;;;;;5.25;1.33;;;;;;;;;;5397793;26;20305;-68
2024/04/16 03:07:43;;;;;;;9.77;1.50;;;;;;;;;;5399388;26;20431;-68
2024/04/16 03:10:13;;;;;;;11.63;1.10;;;;;;;;;;5409418;26;20499;-68
2024/04/16 03:12:39;;;;;;;8.82;1.58;;;;;;;;;;5398047;26;19999;-69
2024/04/16 03:15:04;;;;;;;7.43;1.33;;;;;;;;;;5411201;26;20027;-68
2024/04/16 03:17:29;;;;;;;9.20;1.30;;;;;;;;;;5409348;26;20278;-68
2024/04/16 03:19:54;;;;;;;4.67;1.47;;;;;;;;;;5400660;26;20337;-69
2024/04/16 03:22:20;;;;;;;5.07;0.98;;;;;;;;;;5411200;26;20249;-69
2024/04/16 03:24:45;;;;;;;1.08;0.68;;;;;;;;;;5373406;26;20011;-68
2024/04/16 03:27:10;;;;;;;2.70;0.63;;;;;;;;;;5408637;26;20003;-68
2024/04/16 03:29:35;;;;;;;13.52;1.30;;;;;;;;;;5407301;26;20072;-68
2024/04/16 03:32:01;;;;;;;5.53;1.27;;;;;;;;;;5384425;26;20336;-68
2024/04/16 03:34:26;;;;;;;3.97;0.90;;;;;;;;;;5407976;26;20556;-68
2024/04/16 03:36:51;;;;;;;6.27;1.90;;;;;;;;;;5398262;26;20258;-68
2024/04/16 03:39:17;;;;;;;6.70;1.50;;;;;;;;;;5404080;26;20245;-68
2024/04/16 03:41:42;;;;;;;1.98;0.90;;;;;;;;;;5397500;26;20245;-68
2024/04/16 03:44:07;;;;;;;5.75;1.23;;;;;;;;;;5402348;26;19999;-68
2024/04/16 03:46:32;;;;;;;7.40;1.30;;;;;;;;;;5409068;26;19999;-68
2024/04/16 03:48:57;;;;;;;14.47;1.50;;;;;;;;;;5409305;26;20241;-68
2024/04/16 03:51:23;;;;;;;6.40;1.35;;;;;;;;;;5394073;26;20296;-68
2024/04/16 03:53:48;;;;;;;9.97;1.43;;;;;;;;;;5409877;26;20015;-68
2024/04/16 03:56:13;;;;;;;8.60;1.33;;;;;;;;;;5410775;26;20233;-68
2024/04/16 03:58:44;;;;;;;9.85;1.67;;;;;;;;;;5390678;26;20237;-68
2024/04/16 04:01:10;;;;;;;15.77;2.20;;;;;;;;;;5407908;26;20014;-68
2024/04/16 04:03:35;;;;;;;9.70;2.00;;;;;;;;;;5407449;26;20328;-68
2024/04/16 04:06:00;;;;;;;3.47;1.48;;;;;;;;;;5393446;26;20443;-68
2024/04/16 04:08:26;;;;;;;9.55;1.77;;;;;;;;;;5409138;26;20003;-69
2024/04/16 04:10:51;;;;;;;10.00;2.30;;;;;;;;;;5392378;26;20400;-68
2024/04/16 04:13:17;;;;;;;6.40;1.67;;;;;;;;;;5399452;26;20446;-68
2024/04/16 04:15:42;;;;;;;7.88;1.20;;;;;;;;;;5390154;26;20032;-68
2024/04/16 04:18:07;;;;;;;13.65;2.47;;;;;;;;;;5397802;26;19992;-68
2024/04/16 04:20:32;;;;;;;13.27;2.13;;;;;;;;;;5411188;26;20066;-68
2024/04/16 04:22:58;;;;;;;14.00;2.15;;;;;;;;;;5413121;26;20284;-68
2024/04/16 04:25:23;;;;;;;16.50;1.60;;;;;;;;;;5409736;26;20010;-68
2024/04/16 04:27:49;;;;;;;7.57;1.93;;;;;;;;;;5388958;26;20350;-68
2024/04/16 04:30:14;;;;;;;8.70;2.08;;;;;;;;;;5412394;26;20305;-68
2024/04/16 04:32:39;;;;;;;12.00;1.83;;;;;;;;;;5399724;26;19999;-68
2024/04/16 04:35:04;;;;;;;10.67;1.93;;;;;;;;;;5406102;26;20743;-68
2024/04/16 04:37:29;;;;;;;10.27;1.95;;;;;;;;;;5399884;26;20233;-68
2024/04/16 04:39:55;;;;;;;8.07;1.85;;;;;;;;;;5399491;26;20420;-68
2024/04/16 04:42:20;;;;;;;11.85;2.55;;;;;;;;;;5411797;26;19995;-69
2024/04/16 04:44:45;;;;;;;12.73;1.70;;;;;;;;;;5409739;26;20454;-69
2024/04/16 04:47:11;;;;;;;5.80;1.90;;;;;;;;;;5394116;26;20011;-68
2024/04/16 04:49:36;;;;;;;16.27;2.30;;;;;;;;;;5393382;26;20015;-68
2024/04/16 04:52:01;;;;;;;12.10;1.75;;;;;;;;;;5403523;26;19999;-68
2024/04/16 04:54:27;;;;;;;12.88;1.65;;;;;;;;;;5398991;26;20004;-68
2024/04/16 04:56:52;;;;;;;10.52;2.25;;;;;;;;;;5403152;26;20004;-68
2024/04/16 04:59:17;;;;;;;12.87;1.60;;;;;;;;;;5396100;26;20007;-68
2024/04/16 05:01:43;;;;;;;2.15;0.60;;;;;;;;;;5408135;26;20341;-68
2024/04/16 05:04:08;;;;;;;3.67;1.38;;;;;;;;;;5408841;26;19996;-68
2024/04/16 05:06:33;;;;;;;9.10;1.77;;;;;;;;;;5406234;26;20011;-68
2024/04/16 05:08:59;;;;;;;9.20;1.73;;;;;;;;;;5399217;26;20470;-69
2024/04/16 05:11:25;;;;;;;7.32;1.50;;;;;;;;;;5407196;26;20436;-69
2024/04/16 05:13:50;;;;;;;8.77;1.48;;;;;;;;;;5409631;26;20000;-68
2024/04/16 05:16:15;;;;;;;11.93;1.92;;;;;;;;;;5408732;26;20004;-68
2024/04/16 05:18:40;;;;;;;3.83;1.50;;;;;;;;;;5396370;26;19995;-68
2024/04/16 05:21:05;;;;;;;11.50;2.17;;;;;;;;;;5402946;26;20011;-69
2024/04/16 05:23:31;;;;;;;9.07;1.60;;;;;;;;;;5405973;26;20004;-68
2024/04/16 05:26:02;;;;;;;7.43;1.70;;;;;;;;;;5399293;26;20266;-68
2024/04/16 05:28:28;;;;;;;7.53;1.40;;;;;;;;;;5397874;26;20010;-69
2024/04/16 05:30:53;;;;;;;5.68;1.63;;;;;;;;;;5394858;26;20004;-69
2024/04/16 05:33:18;;;;;;;10.75;1.70;;;;;;;;;;5395707;26;20012;-69
2024/04/16 05:35:43;;;;;;;7.30;1.30;;;;;;;;;;5401704;26;19992;-69
2024/04/16 05:38:09;;;;;;;8.13;1.53;;;;;;;;;;5405649;26;20368;-69
2024/04/16 05:40:34;;;;;;;9.63;2.30;;;;;;;;;;5402936;26;20242;-69
2024/04/16 05:42:59;;;;;;;12.00;1.93;;;;;;;;;;5394262;26;20243;-69
2024/04/16 05:45:24;;;;;;;5.53;1.50;;;;;;;;;;5400590;26;20233;-69
2024/04/16 05:47:49;;;;;;;11.93;2.00;;;;;;;;;;5383257;26;20064;-69
2024/04/16 05:50:15;;;;;;;4.33;1.40;;;;;;;;;;5382357;26;20440;-69
2024/04/16 05:52:40;;;;;;;9.13;2.10;;;;;;;;;;5392011;26;20244;-69
2024/04/16 05:55:05;;;;;;;7.03;2.17;;;;;;;;;;5399875;26;20011;-69
2024/04/16 05:57:31;;;;;;;7.80;1.42;;;;;;;;;;5404146;26;20250;-69
2024/04/16 05:59:56;;;;;;;3.92;1.42;;;;;;;;;;5401854;26;19992;-69
2024/04/16 06:02:21;;;;;;;7.50;2.05;;;;;;;;;;5392780;26;20087;-68
2024/04/16 06:04:46;;;;;;;9.02;2.00;;;;;;;;;;5395272;26;20416;-69
2024/04/16 06:07:12;;;;;;;10.77;1.90;;;;;;;;;;5400418;26;20450;-69
2024/04/16 06:09:37;;;;;;;5.30;1.60;;;;;;;;;;5408105;26;20340;-69
2024/04/16 06:12:02;;;;;;;3.23;1.80;;;;;;;;;;5408025;26;20059;-69
2024/04/16 06:14:28;;;;;;;8.52;1.50;;;;;;;;;;5407058;26;20704;-69
2024/04/16 06:16:53;;;;;;;4.35;1.55;;;;;;;;;;5384163;26;20016;-69
2024/04/16 06:19:18;;;;;;;3.40;1.13;;;;;;;;;;5403823;26;20119;-69
2024/04/16 06:21:44;;;;;;;8.20;1.87;;;;;;;;;;5399396;26;20294;-69
2024/04/16 06:24:09;;;;;;;8.32;1.85;;;;;;;;;;5364308;26;20237;-69
2024/04/16 06:26:35;;;;;;;6.72;1.98;;;;;;;;;;5400938;26;20455;-69
2024/04/16 06:29:00;;;;;;;4.72;1.58;;;;;;;;;;5407898;26;20014;-69
2024/04/16 06:31:25;;;;;;;14.68;1.73;;;;;;;;;;5409061;26;20000;-69
2024/04/16 06:33:50;;;;;;;7.63;1.80;;;;;;;;;;5407580;26;20022;-68
2024/04/16 06:36:15;;;;;;;4.55;1.75;;;;;;;;;;5406455;26;20006;-69
2024/04/16 06:38:41;;;;;;;5.20;2.10;;;;;;;;;;5410919;26;20004;-69
2024/04/16 06:41:06;;;;;;;11.80;2.33;;;;;;;;;;5403183;26;20233;-68
2024/04/16 06:43:31;;;;;;;5.03;1.73;;;;;;;;;;5402016;26;20261;-68
2024/04/16 06:45:56;;;;;;;9.25;2.15;;;;;;;;;;5395700;26;20857;-68
2024/04/16 06:48:22;;;;;;;7.10;1.88;;;;;;;;;;5403838;26;19999;-69
2024/04/16 06:50:47;;;;;;;9.30;2.10;;;;;;;;;;5401626;26;20000;-69
2024/04/16 06:53:13;;;;;;;6.90;1.48;;;;;;;;;;5402292;26;20362;-69
2024/04/16 06:55:38;;;;;;;5.20;1.70;;;;;;;;;;5407171;26;19987;-69
2024/04/16 06:58:03;;;;;;;4.03;2.00;;;;;;;;;;5408531;26;20250;-69
2024/04/16 07:00:28;;;;;;;5.65;2.95;;;;;;;;;;5398355;26;20057;-69
2024/04/16 07:02:53;;;;;;;6.87;2.60;;;;;;;;;;5398384;26;20331;-69
2024/04/16 07:05:18;;;;;;;10.70;1.47;;;;;;;;;;5407944;26;20237;-69
2024/04/16 07:07:44;;;;;;;9.27;2.50;;;;;;;;;;5410615;26;20285;-69
2024/04/16 07:10:09;;;;;;;8.03;2.10;;;;;;;;;;5403476;26;20268;-69
2024/04/16 07:12:34;;;;;;;5.38;2.47;;;;;;;;;;5407764;26;20293;-69
2024/04/16 07:14:59;;;;;;;9.18;2.22;;;;;;;;;;5401557;26;20366;-69
2024/04/16 07:17:25;;;;;;;11.40;2.28;;;;;;;;;;5401071;26;20015;-69
2024/04/16 07:19:50;;;;;;;4.85;1.85;;;;;;;;;;5406261;26;20435;-69
2024/04/16 07:22:15;;;;;;;10.07;1.60;;;;;;;;;;5402961;26;20443;-69
2024/04/16 07:24:40;;;;;;;9.13;2.03;;;;;;;;;;5410318;26;20234;-69
2024/04/16 07:27:05;;;;;;;5.38;1.98;;;;;;;;;;5408641;26;20240;-69
2024/04/16 07:29:31;;;;;;;9.40;2.05;;;;;;;;;;5409265;26;19995;-69
2024/04/16 07:31:56;;;;;;;7.57;1.50;;;;;;;;;;5412436;26;20003;-69
2024/04/16 07:34:22;;;;;;;7.87;2.13;;;;;;;;;;5414193;26;19992;-69
2024/04/16 07:36:47;;;;;;;7.15;2.20;;;;;;;;;;5413437;26;20241;-69
2024/04/16 07:39:12;;;;;;;3.58;1.52;;;;;;;;;;5406885;26;19992;-69
2024/04/16 07:41:38;;;;;;;5.40;1.25;;;;;;;;;;5411622;26;20482;-69
2024/04/16 07:44:03;;;;;;;9.03;1.93;;;;;;;;;;5408747;26;20098;-69
2024/04/16 07:46:28;;;;;;;4.05;1.77;;;;;;;;;;5409873;26;20286;-69
2024/04/16 07:48:53;;;;;;;1.85;1.05;;;;;;;;;;5397930;26;20010;-69
2024/04/16 07:51:18;;;;;;;7.75;1.50;;;;;;;;;;5401469;26;19992;-69
2024/04/16 07:53:44;;;;;;;4.00;0.75;;;;;;;;;;5413768;26;20065;-69
2024/04/16 07:56:09;;;;;;;1.17;0.75;;;;;;;;;;5397504;26;20925;-69
2024/04/16 07:58:34;;;;;;;2.03;0.80;;;;;;;;;;5407405;26;20002;-69
2024/04/16 08:00:59;;;;;;;5.67;1.17;;;;;;;;;;5409586;26;20443;-69
2024/04/16 08:03:24;;;;;;;2.10;0.90;;;;;;;;;;5412335;26;20252;-69
2024/04/16 08:05:50;;;;;;;9.25;1.73;;;;;;;;;;5413358;26;20073;-69
2024/04/16 08:08:15;;;;;;;3.65;1.00;;;;;;;;;;5407550;26;20323;-69
2024/04/16 08:10:41;;;;;;;2.10;0.75;;;;;;;;;;5411768;26;20015;-69
2024/04/16 08:13:06;;;;;;;6.75;1.73;;;;;;;;;;5413142;26;19999;-69
2024/04/16 08:15:31;;;;;;;4.13;1.30;;;;;;;;;;5401424;26;20000;-69
2024/04/16 08:17:56;;;;;;;4.70;1.30;;;;;;;;;;5405536;26;20010;-69
2024/04/16 08:20:22;;;;;;;5.63;3.17;;;;;;;;;;5391885;26;20294;-69
2024/04/16 08:22:47;;;;;;;0.93;0.63;;;;;;;;;;5411750;26;19999;-69
2024/04/16 08:25:12;;;;;;;3.23;1.23;;;;;;;;;;5401822;26;20234;-69
2024/04/16 08:27:38;;;;;;;4.38;1.55;;;;;;;;;;5407649;26;20325;-69
2024/04/16 08:30:03;;;;;;;2.33;1.20;;;;;;;;;;5406773;26;20443;-69
2024/04/16 08:32:29;;;;;;;7.15;2.30;;;;;;;;;;5411841;26;20000;-69
2024/04/16 08:34:54;;;;;;;10.40;1.50;;;;;;;;;;5411748;26;20689;-69
2024/04/16 08:37:19;;;;;;;4.40;1.87;;;;;;;;;;5398830;26;20340;-69
2024/04/16 08:39:44;;;;;;;7.70;1.90;;;;;;;;;;5405674;26;20615;-69
2024/04/16 08:42:11;;;;;;;9.43;2.50;;;;;;;;;;5411761;26;20249;-69
2024/04/16 08:44:38;;;;;;;21.27;3.45;;;;;;;;;;5400797;26;20082;-69
2024/04/16 08:47:03;;;;;;;9.43;2.83;;;;;;;;;;5404240;26;20011;-69
2024/04/16 08:49:29;;;;;;;11.88;3.47;;;;;;;;;;5410008;26;20000;-69
2024/04/16 08:51:57;;;;;;;7.05;2.13;;;;;;;;;;5403700;26;20011;-69
2024/04/16 08:54:23;;;;;;;11.68;3.42;;;;;;;;;;5401287;26;20000;-69
2024/04/16 08:56:49;;;;;;;13.40;4.38;;;;;;;;;;5400269;26;20036;-69
2024/04/16 08:59:14;;;;;;;8.27;3.60;;;;;;;;;;5403851;26;20000;-69
2024/04/16 09:01:40;;;;;;;14.57;5.00;;;;;;;;;;5406878;26;19999;-69
2024/04/16 09:04:06;;;;;;;13.00;4.32;;;;;;;;;;5412425;26;20007;-69
2024/04/16 09:06:32;;;;;;;12.63;3.72;;;;;;;;;;5403839;26;20382;-69
2024/04/16 09:08:57;;;;;;;6.65;3.17;;;;;;;;;;5407414;26;20057;-69
2024/04/16 09:11:22;;;;;;;14.25;3.83;;;;;;;;;;5410127;26;19999;-69
2024/04/16 09:13:48;;;;;;;12.45;3.88;;;;;;;;;;5411293;26;20014;-69
2024/04/16 09:16:13;;;;;;;17.52;4.30;;;;;;;;;;5406179;26;19996;-69
2024/04/16 09:18:38;;;;;;;15.68;3.70;;;;;;;;;;5404818;26;20431;-69
2024/04/16 09:21:04;;;;;;;10.35;3.92;;;;;;;;;;5412048;26;19992;-69
2024/04/16 09:23:29;;;;;;;19.05;5.07;;;;;;;;;;5403822;26;20011;-69
2024/04/16 09:25:56;;;;;;;22.33;4.63;;;;;;;;;;5410520;26;20069;-69
2024/04/16 09:28:21;;;;;;;8.73;3.53;;;;;;;;;;5402420;26;20308;-69
2024/04/16 09:30:53;;;;;;;19.20;4.90;;;;;;;;;;5404893;26;19996;-70
2024/04/16 09:33:19;;;;;;;13.05;4.25;;;;;;;;;;5411588;26;20014;-69
2024/04/16 09:35:44;;;;;;;8.48;3.60;;;;;;;;;;5407623;26;20003;-69
2024/04/16 09:38:09;;;;;;;10.20;4.60;;;;;;;;;;5407599;26;20004;-69
2024/04/16 09:40:35;;;;;;;20.48;4.32;;;;;;;;;;5407443;26;19995;-69
2024/04/16 09:43:01;;;;;;;19.95;5.72;;;;;;;;;;5407486;26;20001;-69
2024/04/16 09:45:27;;;;;;;11.02;3.65;;;;;;;;;;5408172;26;20404;-69
2024/04/16 09:47:53;;;;;;;17.55;4.07;;;;;;;;;;5410639;26;20010;-69
2024/04/16 09:50:19;;;;;;;14.70;3.50;;;;;;;;;;5410481;26;19996;-69
2024/04/16 09:52:45;;;;;;;10.18;3.33;;;;;;;;;;5411603;26;20010;-69
2024/04/16 09:55:11;;;;;;;17.30;4.00;;;;;;;;;;5404577;26;20358;-69
2024/04/16 09:57:37;;;;;;;10.07;3.25;;;;;;;;;;5398520;26;20022;-69
2024/04/16 10:00:03;;;;;;;13.75;2.47;;;;;;;;;;5403507;26;20369;-69
2024/04/16 10:02:30;;;;;;;18.88;3.05;;;;;;;;;;5406160;26;20006;-69
2024/04/16 10:04:56;;;;;;;9.25;2.05;;;;;;;;;;5404783;26;20000;-70
2024/04/16 10:07:21;;;;;;;11.73;3.30;;;;;;;;;;5401646;26;20076;-69
2024/04/16 10:09:47;;;;;;;11.90;3.97;;;;;;;;;;5406707;26;19999;-69
2024/04/16 10:12:12;;;;;;;9.55;3.33;;;;;;;;;;5402539;26;20000;-69
2024/04/16 10:14:37;;;;;;;9.57;2.10;;;;;;;;;;5410633;26;19992;-70
2024/04/16 10:17:02;;;;;;;8.70;1.70;;;;;;;;;;5377870;26;20011;-69
2024/04/16 10:19:28;;;;;;;10.18;2.40;;;;;;;;;;5406632;26;20313;-69
2024/04/16 10:21:59;;;;;;;16.75;2.03;;;;;;;;;;5404591;26;20003;-69
2024/04/16 10:24:26;;;;;;;8.88;1.73;;;;;;;;;;5393557;26;20000;-69
2024/04/16 10:26:56;;;;;;;12.25;1.90;;;;;;;;;;5406192;26;20003;-69
2024/04/16 10:29:25;;;;;;;4.95;1.58;;;;;;;;;;5406336;26;20004;-69
2024/04/16 10:31:51;;;;;;;5.83;2.17;;;;;;;;;;5370995;26;20018;-69
2024/04/16 10:34:23;;;;;;;7.85;1.85;;;;;;;;;;5406426;26;20000;-69
2024/04/16 10:36:51;;;;;;;11.27;2.45;;;;;;;;;;5404314;26;19991;-69
2024/04/16 10:39:17;;;;;;;9.18;2.13;;;;;;;;;;5410839;26;20018;-69
2024/04/16 10:41:52;;;;;;;11.32;3.05;;;;;;;;;;5408302;26;20430;-69
2024/04/16 10:44:17;;;;;;;5.68;1.83;;;;;;;;;;5407732;26;19996;-69
2024/04/16 10:46:43;;;;;;;10.23;1.55;;;;;;;;;;5409658;26;20014;-69
2024/04/16 10:49:09;;;;;;;14.70;2.53;;;;;;;;;;5407583;26;20004;-69
2024/04/16 10:51:34;;;;;;;10.98;2.42;;;;;;;;;;5410105;26;20346;-70
2024/04/16 10:54:08;;;;;;;12.40;3.00;;;;;;;;;;5409588;26;20337;-69
2024/04/16 10:56:37;;;;;;;12.25;2.40;;;;;;;;;;5408593;26;20241;-70
2024/04/16 10:59:06;;;;;;;8.35;1.90;;;;;;;;;;5410261;26;20003;-69
2024/04/16 11:01:31;;;;;;;18.67;3.03;;;;;;;;;;5409371;26;20007;-69
2024/04/16 11:04:04;;;;;;;9.90;1.50;;;;;;;;;;5407216;26;19999;-69
2024/04/16 11:06:29;;;;;;;6.07;1.52;;;;;;;;;;5408746;26;19996;-69
2024/04/16 11:08:54;;;;;;;14.63;1.43;;;;;;;;;;5408787;26;20099;-69
2024/04/16 11:11:20;;;;;;;9.60;1.67;;;;;;;;;;5409749;26;20591;-69
2024/04/16 11:13:45;;;;;;;3.97;1.58;;;;;;;;;;5413303;26;20011;-69
2024/04/16 11:16:11;;;;;;;8.53;1.43;;;;;;;;;;5412412;26;20000;-69
2024/04/16 11:18:36;;;;;;;5.85;1.23;;;;;;;;;;5408309;26;20285;-69
2024/04/16 11:21:01;;;;;;;14.10;1.10;;;;;;;;;;5404344;26;20048;-69
2024/04/16 11:23:26;;;;;;;5.00;1.15;;;;;;;;;;5410381;26;20360;-69
2024/04/16 11:25:52;;;;;;;2.72;0.90;;;;;;;;;;5411642;26;20327;-69
2024/04/16 11:28:17;;;;;;;6.13;1.48;;;;;;;;;;5411999;26;20068;-69
2024/04/16 11:30:55;;;;;;;4.15;1.40;;;;;;;;;;5408267;26;20008;-69
2024/04/16 11:33:23;;;;;;;4.75;1.70;;;;;;;;;;5394016;26;20040;-69
2024/04/16 11:35:49;;;;;;;5.65;1.50;;;;;;;;;;5401373;26;20374;-69
2024/04/16 11:38:17;;;;;;;14.70;1.75;;;;;;;;;;5411361;26;20006;-69
2024/04/16 11:40:42;;;;;;;5.82;1.90;;;;;;;;;;5412474;26;20075;-69
2024/04/16 11:43:07;;;;;;;4.97;1.30;;;;;;;;;;5412954;26;19991;-69
2024/04/16 11:45:33;;;;;;;10.03;1.17;;;;;;;;;;5409136;26;20739;-69
2024/04/16 11:47:58;;;;;;;12.23;1.35;;;;;;;;;;5413219;26;20356;-69
2024/04/16 11:50:23;;;;;;;5.85;1.45;;;;;;;;;;5412910;26;20010;-69
2024/04/16 11:52:48;;;;;;;6.88;1.20;;;;;;;;;;5412378;26;20399;-69
2024/04/16 11:55:13;;;;;;;5.10;1.30;;;;;;;;;;5412338;26;20018;-69
2024/04/16 11:57:39;;;;;;;10.15;1.27;;;;;;;;;;5409511;26;20584;-69
2024/04/16 12:00:04;;;;;;;8.60;1.73;;;;;;;;;;5405654;26;19995;-69
2024/04/16 12:02:29;;;;;;;7.97;1.40;;;;;;;;;;5411149;26;20277;-69
2024/04/16 12:04:54;;;;;;;5.70;1.48;;;;;;;;;;5410983;26;20511;-69
2024/04/16 12:07:20;;;;;;;10.17;2.27;;;;;;;;;;5398477;26;20039;-69
2024/04/16 12:09:45;;;;;;;7.07;2.10;;;;;;;;;;5404636;26;20277;-69
2024/04/16 12:12:10;;;;;;;7.27;2.03;;;;;;;;;;5394862;26;20001;-69
2024/04/16 12:14:36;;;;;;;6.03;2.33;;;;;;;;;;5408366;26;20238;-69
2024/04/16 12:17:01;;;;;;;5.23;2.00;;;;;;;;;;5401709;26;20237;-69
2024/04/16 12:19:26;;;;;;;4.67;1.80;;;;;;;;;;5406089;26;20233;-69
2024/04/16 12:21:51;;;;;;;8.63;2.33;;;;;;;;;;5397873;26;20842;-69
2024/04/16 12:24:16;;;;;;;6.80;1.92;;;;;;;;;;5405022;26;20300;-69
2024/04/16 12:26:41;;;;;;;8.20;1.80;;;;;;;;;;5405416;26;20000;-69
2024/04/16 12:29:07;;;;;;;9.57;2.60;;;;;;;;;;5406441;26;20328;-69
2024/04/16 12:31:32;;;;;;;10.13;1.85;;;;;;;;;;5406451;26;20015;-69
2024/04/16 12:34:00;;;;;;;3.88;1.90;;;;;;;;;;5406378;26;20003;-69
2024/04/16 12:36:25;;;;;;;5.10;1.95;;;;;;;;;;5395391;26;19996;-70
2024/04/16 12:38:50;;;;;;;12.00;2.00;;;;;;;;;;5408143;26;20028;-70
2024/04/16 12:41:16;;;;;;;9.40;2.03;;;;;;;;;;5404164;26;20379;-70
2024/04/16 12:43:41;;;;;;;17.38;2.28;;;;;;;;;;5403181;26;20274;-70
2024/04/16 12:46:06;;;;;;;11.83;1.67;;;;;;;;;;5394978;26;20004;-70
2024/04/16 12:48:32;;;;;;;9.45;2.85;;;;;;;;;;5407147;26;20277;-70
2024/04/16 12:50:57;;;;;;;13.82;2.05;;;;;;;;;;5400488;26;20000;-69
2024/04/16 12:53:22;;;;;;;11.30;1.60;;;;;;;;;;5410056;26;19995;-70
2024/04/16 12:55:47;;;;;;;3.37;1.30;;;;;;;;;;5404397;26;20396;-69
2024/04/16 12:58:15;;;;;;;5.57;1.30;;;;;;;;;;5403474;26;20245;-69
2024/04/16 13:00:40;;;;;;;5.95;1.95;;;;;;;;;;5397487;26;20351;-69
2024/04/16 13:03:07;;;;;;;8.75;1.60;;;;;;;;;;5408874;26;20023;-69
2024/04/16 13:05:32;;;;;;;3.85;0.90;;;;;;;;;;5395901;26;20046;-69
2024/04/16 13:07:58;;;;;;;1.70;1.13;;;;;;;;;;5412221;26;20011;-69
2024/04/16 13:10:23;;;;;;;3.00;0.80;;;;;;;;;;5395658;26;20449;-70
2024/04/16 13:12:48;;;;;;;5.03;0.70;;;;;;;;;;5405801;26;20336;-70
2024/04/16 13:15:14;;;;;;;3.30;1.08;;;;;;;;;;5407014;26;20000;-70
2024/04/16 13:17:39;;;;;;;4.18;0.63;;;;;;;;;;5402629;26;19988;-69
2024/04/16 13:20:04;;;;;;;3.97;1.20;;;;;;;;;;5406815;26;20735;-70
2024/04/16 13:22:29;;;;;;;6.68;1.40;;;;;;;;;;5405550;26;20229;-70
2024/04/16 13:24:55;;;;;;;3.00;0.88;;;;;;;;;;5400873;26;20008;-69
2024/04/16 13:27:20;;;;;;;7.37;1.00;;;;;;;;;;5407657;26;20450;-70
2024/04/16 13:29:45;;;;;;;4.90;1.65;;;;;;;;;;5403038;26;20234;-69
2024/04/16 13:32:10;;;;;;;5.97;1.75;;;;;;;;;;5406752;26;19995;-70
2024/04/16 13:34:36;;;;;;;5.38;1.85;;;;;;;;;;5401912;26;20035;-69
2024/04/16 13:37:01;;;;;;;5.78;2.40;;;;;;;;;;5400388;26;20500;-69
2024/04/16 13:39:27;;;;;;;8.52;1.55;;;;;;;;;;5406653;26;19996;-70
2024/04/16 13:41:52;;;;;;;7.47;1.90;;;;;;;;;;5405521;26;19992;-69
2024/04/16 13:44:17;;;;;;;8.48;2.15;;;;;;;;;;5408823;26;20015;-69
2024/04/16 13:46:44;;;;;;;7.32;2.15;;;;;;;;;;5405497;26;20351;-70
2024/04/16 13:49:09;;;;;;;6.90;2.55;;;;;;;;;;5407683;26;19996;-69
2024/04/16 13:51:35;;;;;;;4.53;1.60;;;;;;;;;;5403273;26;20622;-69
2024/04/16 13:54:00;;;;;;;6.88;2.20;;;;;;;;;;5398668;26;20043;-69
2024/04/16 13:56:25;;;;;;;2.07;0.70;;;;;;;;;;5406185;26;20135;-69
2024/04/16 13:58:50;;;;;;;4.65;1.00;;;;;;;;;;5409133;26;20263;-69
2024/04/16 14:01:16;;;;;;;2.90;0.85;;;;;;;;;;5408881;26;20003;-69
2024/04/16 14:03:41;;;;;;;1.45;0.68;;;;;;;;;;5406699;26;20009;-70
2024/04/16 14:06:06;;;;;;;1.88;1.02;;;;;;;;;;5407155;26;19995;-69
2024/04/16 14:08:31;;;;;;;1.40;0.67;;;;;;;;;;5409860;26;20010;-69
2024/04/16 14:10:57;;;;;;;4.65;0.65;;;;;;;;;;5379765;26;20376;-69
2024/04/16 14:13:22;;;;;;;1.83;0.88;;;;;;;;;;5400417;26;19999;-69
2024/04/16 14:15:47;;;;;;;2.10;0.83;;;;;;;;;;5388977;26;19992;-69
2024/04/16 14:18:12;;;;;;;3.05;1.30;;;;;;;;;;5410982;26;20226;-70
2024/04/16 14:20:37;;;;;;;10.77;1.97;;;;;;;;;;5376102;26;20006;-69
2024/04/16 14:23:02;;;;;;;9.50;1.90;;;;;;;;;;5406773;26;20241;-72
2024/04/16 14:25:28;;;;;;;8.30;1.77;;;;;;;;;;5383908;26;20270;-70
2024/04/16 14:27:54;;;;;;;4.40;1.83;;;;;;;;;;5397335;26;19999;-71